createdAt,value
2023-05-15T00:01:20.365Z,6.80
2023-05-15T00:03:23.459Z,6.27
2023-05-15T00:05:26.534Z,8.37
2023-05-15T00:07:29.591Z,7.90
2023-05-15T00:09:33.750Z,6.00
2023-05-15T00:11:36.689Z,7.93
2023-05-15T00:13:39.554Z,7.67
2023-05-15T00:15:42.372Z,6.93
2023-05-15T00:17:45.194Z,8.20
2023-05-15T00:19:48.327Z,7.67
2023-05-15T00:21:51.566Z,7.07
2023-05-15T00:23:54.927Z,6.50
2023-05-15T00:25:59.056Z,7.67
2023-05-15T00:28:01.912Z,6.00
2023-05-15T00:30:05.815Z,5.97
2023-05-15T00:32:08.895Z,7.47
2023-05-15T00:34:12.047Z,9.10
2023-05-15T00:36:14.953Z,7.00
2023-05-15T00:38:17.830Z,7.27
2023-05-15T00:40:22.961Z,6.53
2023-05-15T00:42:27.527Z,5.93
2023-05-15T00:44:31.873Z,5.23
2023-05-15T00:46:36.640Z,7.57
2023-05-15T00:48:40.635Z,7.80
2023-05-15T00:50:44.012Z,7.73
2023-05-15T00:52:47.381Z,6.20
2023-05-15T00:54:50.167Z,6.73
2023-05-15T00:56:53.639Z,10.20
2023-05-15T00:58:59.854Z,5.90
2023-05-15T01:01:02.753Z,8.17
2023-05-15T01:03:06.497Z,8.50
2023-05-15T01:05:10.207Z,6.30
2023-05-15T01:07:13.317Z,6.40
2023-05-15T01:09:16.964Z,9.13
2023-05-15T01:11:21.087Z,8.83
2023-05-15T01:13:24.452Z,8.53
2023-05-15T01:15:28.709Z,9.73
2023-05-15T01:17:32.650Z,7.43
2023-05-15T01:19:36.594Z,7.47
2023-05-15T01:22:24.245Z,9.70
2023-05-15T01:24:44.282Z,9.90
2023-05-15T01:27:16.886Z,7.40
2023-05-15T01:29:28.285Z,8.20
2023-05-15T01:31:33.530Z,10.03
2023-05-15T01:33:42.798Z,12.53
2023-05-15T01:35:50.815Z,9.03
2023-05-15T01:38:02.525Z,7.77
2023-05-15T01:40:09.082Z,10.63
2023-05-15T01:42:16.373Z,9.80
2023-05-15T01:44:26.069Z,11.13
2023-05-15T01:46:32.115Z,8.23
2023-05-15T01:48:36.558Z,8.57
2023-05-15T01:50:41.134Z,9.80
2023-05-15T01:52:47.576Z,10.53
2023-05-15T01:54:52.018Z,7.77
2023-05-15T01:56:56.719Z,9.53
2023-05-15T01:59:01.330Z,7.97
2023-05-15T02:01:06.384Z,8.00
2023-05-15T02:03:09.932Z,10.37
2023-05-15T02:05:13.184Z,6.83
2023-05-15T02:07:17.060Z,7.17
2023-05-15T02:09:21.726Z,13.10
2023-05-15T02:11:24.566Z,6.70
2023-05-15T02:13:28.330Z,8.13
2023-05-15T02:15:31.697Z,5.80
2023-05-15T02:17:35.973Z,11.60
2023-05-15T02:19:38.790Z,5.03
2023-05-15T02:21:41.597Z,5.40
2023-05-15T02:23:44.581Z,5.80
2023-05-15T02:26:07.840Z,8.07
2023-05-15T02:28:18.104Z,5.23
2023-05-15T02:30:30.612Z,5.90
2023-05-15T02:32:43.674Z,5.20
2023-05-15T02:34:53.449Z,9.13
2023-05-15T02:36:59.717Z,8.77
2023-05-15T02:39:03.668Z,7.53
2023-05-15T02:41:07.628Z,5.80
2023-05-15T02:43:11.798Z,7.70
2023-05-15T02:45:15.172Z,5.17
2023-05-15T02:47:18.698Z,5.57
2023-05-15T02:49:23.708Z,5.77
2023-05-15T02:51:26.655Z,4.93
2023-05-15T02:53:30.447Z,5.93
2023-05-15T02:55:34.185Z,5.63
2023-05-15T02:57:37.069Z,5.80
2023-05-15T02:59:40.101Z,5.67
2023-05-15T03:01:43.796Z,14.77
2023-05-15T03:03:47.172Z,5.57
2023-05-15T03:05:51.233Z,7.77
2023-05-15T03:07:54.068Z,6.23
2023-05-15T03:09:56.854Z,6.63
2023-05-15T03:11:59.589Z,6.70
2023-05-15T03:14:02.524Z,13.30
2023-05-15T03:16:05.964Z,9.13
2023-05-15T03:18:08.934Z,9.93
2023-05-15T03:20:12.388Z,6.70
2023-05-15T03:22:16.626Z,7.70
2023-05-15T03:24:19.413Z,8.37
2023-05-15T03:26:22.241Z,7.40
2023-05-15T03:28:25.685Z,10.70
2023-05-15T03:30:28.871Z,7.83
2023-05-15T03:32:31.754Z,7.07
2023-05-15T03:34:34.660Z,8.53
2023-05-15T03:36:37.461Z,10.87
2023-05-15T03:38:43.989Z,8.37
2023-05-15T03:40:47.503Z,9.37
2023-05-15T03:42:53.425Z,8.00
2023-05-15T03:44:57.100Z,7.80
2023-05-15T03:46:59.890Z,9.37
2023-05-15T03:49:02.727Z,11.37
2023-05-15T03:51:05.669Z,10.57
2023-05-15T03:53:08.471Z,12.37
2023-05-15T03:55:12.884Z,11.60
2023-05-15T03:57:15.988Z,8.90
2023-05-15T04:01:55.721Z,8.13
2023-05-15T04:04:05.717Z,8.93
2023-05-15T04:06:08.620Z,13.13
2023-05-15T04:08:12.441Z,14.03
2023-05-15T04:10:16.921Z,10.00
2023-05-15T04:12:19.718Z,9.17
2023-05-15T04:14:22.487Z,10.30
2023-05-15T04:16:25.375Z,11.07
2023-05-15T04:18:28.221Z,9.80
2023-05-15T04:20:31.105Z,9.53
2023-05-15T04:22:34.111Z,14.53
2023-05-15T04:24:36.947Z,10.50
2023-05-15T04:26:41.912Z,9.73
2023-05-15T04:28:56.191Z,9.43
2023-05-15T04:31:06.962Z,8.40
2023-05-15T04:33:09.864Z,11.50
2023-05-15T04:35:13.675Z,9.87
2023-05-15T04:37:16.750Z,11.53
2023-05-15T04:39:19.536Z,8.23
2023-05-15T04:41:22.285Z,9.43
2023-05-15T04:43:26.452Z,8.83
2023-05-15T04:45:29.222Z,9.40
2023-05-15T04:47:32.554Z,7.93
2023-05-15T04:49:35.462Z,8.27
2023-05-15T04:51:38.426Z,7.73
2023-05-15T04:53:41.198Z,10.93
2023-05-15T04:55:44.072Z,11.90
2023-05-15T04:57:47.948Z,7.23
2023-05-15T04:59:52.174Z,7.60
2023-05-15T05:01:55.093Z,8.40
2023-05-15T05:03:58.189Z,6.27
2023-05-15T05:06:01.504Z,7.27
2023-05-15T05:08:04.572Z,8.87
2023-05-15T05:10:09.017Z,10.77
2023-05-15T05:12:12.189Z,10.53
2023-05-15T05:14:15.969Z,8.30
2023-05-15T05:16:20.280Z,8.97
2023-05-15T05:18:23.204Z,8.63
2023-05-15T05:20:25.988Z,8.87
2023-05-15T05:22:28.766Z,7.23
2023-05-15T05:24:31.707Z,7.63
2023-05-15T05:26:34.510Z,7.17
2023-05-15T05:28:37.720Z,10.97
2023-05-15T05:30:40.559Z,7.67
2023-05-15T05:32:44.660Z,8.50
2023-05-15T05:34:47.613Z,11.70
2023-05-15T05:36:50.693Z,7.50
2023-05-15T05:38:53.506Z,8.00
2023-05-15T05:40:58.589Z,6.37
2023-05-15T05:43:02.136Z,8.90
2023-05-15T05:45:05.498Z,7.67
2023-05-15T05:47:08.365Z,7.07
2023-05-15T05:49:12.549Z,7.73
2023-05-15T05:51:15.547Z,7.13
2023-05-15T05:53:18.352Z,6.73
2023-05-15T05:55:21.280Z,6.93
2023-05-15T05:57:24.430Z,7.83
2023-05-15T05:59:27.213Z,7.93
2023-05-15T06:01:30.115Z,7.80
2023-05-15T06:03:33.890Z,5.90
2023-05-15T06:05:38.121Z,7.13
2023-05-15T06:07:41.421Z,6.87
2023-05-15T06:09:45.875Z,5.80
2023-05-15T06:11:49.276Z,8.47
2023-05-15T06:13:54.184Z,5.73
2023-05-15T06:15:57.201Z,6.80
2023-05-15T06:18:00.067Z,7.63
2023-05-15T06:20:07.012Z,8.17
2023-05-15T06:22:11.219Z,5.90
2023-05-15T06:24:14.129Z,6.57
2023-05-15T06:26:17.019Z,5.70
2023-05-15T06:28:19.852Z,7.83
2023-05-15T06:30:23.212Z,5.47
2023-05-15T06:32:26.304Z,7.40
2023-05-15T06:34:29.107Z,5.60
2023-05-15T06:36:31.876Z,8.47
2023-05-15T06:38:36.432Z,6.93
2023-05-15T06:40:39.232Z,6.30
2023-05-15T06:42:41.984Z,6.63
2023-05-15T06:44:44.833Z,5.83
2023-05-15T06:46:47.883Z,8.50
2023-05-15T06:48:50.846Z,9.70
2023-05-15T06:50:53.823Z,8.07
2023-05-15T06:52:56.623Z,5.57
2023-05-15T06:55:00.841Z,5.73
2023-05-15T06:57:03.653Z,8.57
2023-05-15T06:59:06.444Z,6.70
2023-05-15T07:01:10.377Z,8.50
2023-05-15T07:03:14.378Z,7.23
2023-05-15T07:05:17.205Z,9.93
2023-05-15T07:07:19.972Z,6.67
2023-05-15T07:09:22.864Z,7.17
2023-05-15T07:11:28.448Z,8.33
2023-05-15T07:13:31.537Z,6.23
2023-05-15T07:15:34.410Z,6.53
2023-05-15T07:17:37.371Z,8.63
2023-05-15T07:19:40.264Z,8.87
2023-05-15T07:21:43.036Z,12.10
2023-05-15T07:23:45.849Z,7.60
2023-05-15T07:25:49.335Z,5.73
2023-05-15T07:27:53.677Z,5.53
2023-05-15T07:29:56.525Z,6.43
2023-05-15T07:31:59.269Z,4.43
2023-05-15T07:34:02.188Z,5.73
2023-05-15T07:36:05.735Z,7.53
2023-05-15T07:38:08.616Z,6.73
2023-05-15T07:40:11.991Z,7.70
2023-05-15T07:42:15.196Z,5.30
2023-05-15T07:44:19.322Z,7.07
2023-05-15T07:46:22.156Z,6.27
2023-05-15T07:48:25.104Z,5.57
2023-05-15T07:50:27.978Z,6.00
2023-05-15T07:52:30.765Z,8.73
2023-05-15T07:54:33.716Z,9.10
2023-05-15T07:56:37.847Z,5.33
2023-05-15T07:58:40.926Z,5.40
2023-05-15T08:00:45.105Z,6.10
2023-05-15T08:02:48.862Z,8.90
2023-05-15T08:04:51.970Z,6.07
2023-05-15T08:06:55.049Z,6.23
2023-05-15T08:08:57.833Z,7.17
2023-05-15T08:11:00.679Z,6.50
2023-05-15T08:13:03.418Z,8.50
2023-05-15T08:15:07.060Z,7.87
2023-05-15T08:17:11.169Z,7.60
2023-05-15T08:19:14.015Z,9.83
2023-05-15T08:21:16.868Z,9.43
2023-05-15T08:23:19.641Z,7.13
2023-05-15T08:25:22.512Z,4.43
2023-05-15T08:27:25.789Z,8.17
2023-05-15T08:29:28.572Z,7.17
2023-05-15T08:31:31.455Z,7.80
2023-05-15T08:33:39.340Z,7.90
2023-05-15T08:35:43.607Z,7.93
2023-05-15T08:37:47.615Z,6.57
2023-05-15T08:39:50.423Z,4.90
2023-05-15T08:41:58.142Z,8.10
2023-05-15T08:44:04.271Z,8.67
2023-05-15T08:46:07.820Z,5.30
2023-05-15T08:48:14.602Z,8.83
2023-05-15T08:50:19.925Z,7.73
2023-05-15T08:52:23.060Z,6.10
2023-05-15T08:54:26.892Z,7.63
2023-05-15T08:56:29.884Z,5.70
2023-05-15T08:58:33.575Z,8.87
2023-05-15T09:00:37.552Z,8.97
2023-05-15T09:02:40.945Z,4.57
2023-05-15T09:04:43.788Z,6.87
2023-05-15T09:06:49.066Z,5.63
2023-05-15T09:08:54.004Z,7.43
2023-05-15T09:10:59.208Z,5.70
2023-05-15T09:13:03.997Z,6.10
2023-05-15T09:15:11.165Z,12.90
2023-05-15T09:17:14.306Z,7.47
2023-05-15T09:19:18.073Z,7.93
2023-05-15T09:21:25.323Z,6.97
2023-05-15T09:23:29.426Z,6.17
2023-05-15T09:25:37.583Z,9.00
2023-05-15T09:27:44.528Z,8.27
2023-05-15T09:29:47.802Z,8.13
2023-05-15T09:31:50.991Z,7.37
2023-05-15T09:34:02.126Z,11.53
2023-05-15T09:36:06.395Z,6.33
2023-05-15T09:38:11.078Z,9.00
2023-05-15T09:40:16.697Z,10.87
2023-05-15T09:42:19.535Z,6.13
2023-05-15T09:44:26.599Z,6.47
2023-05-15T09:46:30.637Z,6.97
2023-05-15T09:48:33.864Z,5.97
2023-05-15T09:50:37.875Z,6.47
2023-05-15T09:52:40.791Z,8.27
2023-05-15T09:54:49.473Z,6.97
2023-05-15T09:56:55.132Z,7.90
2023-05-15T09:58:59.203Z,5.73
2023-05-15T10:01:03.123Z,7.33
2023-05-15T10:03:07.758Z,9.27
2023-05-15T10:05:13.092Z,6.60
2023-05-15T10:07:28.952Z,5.87
2023-05-15T10:09:32.391Z,7.87
2023-05-15T10:11:38.602Z,4.07
2023-05-15T10:13:42.982Z,7.23
2023-05-15T10:15:49.776Z,5.50
2023-05-15T10:17:54.481Z,7.90
2023-05-15T10:20:00.755Z,5.83
2023-05-15T10:22:04.122Z,4.50
2023-05-15T10:24:08.195Z,6.17
2023-05-15T10:26:19.960Z,7.10
2023-05-15T10:28:24.595Z,5.70
2023-05-15T10:30:29.939Z,6.27
2023-05-15T10:32:35.160Z,8.70
2023-05-15T10:34:38.255Z,8.20
2023-05-15T10:36:43.376Z,5.23
2023-05-15T10:38:47.878Z,5.83
2023-05-15T10:40:59.818Z,5.63
2023-05-15T10:43:14.772Z,5.30
2023-05-15T10:45:18.604Z,5.50
2023-05-15T10:47:22.948Z,8.67
2023-05-15T10:49:25.922Z,5.80
2023-05-15T10:51:30.163Z,7.03
2023-05-15T10:53:34.136Z,7.40
2023-05-15T10:55:37.951Z,7.87
2023-05-15T10:57:41.122Z,5.17
2023-05-15T10:59:44.187Z,4.57
2023-05-15T11:01:48.149Z,5.80
2023-05-15T11:03:53.917Z,8.40
2023-05-15T11:06:11.827Z,9.73
2023-05-15T11:08:27.413Z,5.77
2023-05-15T11:10:40.411Z,5.67
2023-05-15T11:12:59.864Z,5.17
2023-05-15T11:15:24.507Z,10.10
2023-05-15T11:17:27.826Z,7.03
2023-05-15T11:19:58.934Z,6.80
2023-05-15T11:22:02.958Z,5.13
2023-05-15T11:24:06.976Z,5.30
2023-05-15T11:26:10.007Z,3.70
2023-05-15T11:28:22.993Z,6.27
2023-05-15T11:30:36.484Z,7.70
2023-05-15T11:32:53.423Z,4.73
2023-05-15T11:35:03.209Z,12.20
2023-05-15T11:37:17.977Z,6.30
2023-05-15T11:39:25.064Z,6.63
2023-05-15T11:41:32.980Z,5.03
2023-05-15T11:43:37.001Z,5.60
2023-05-15T11:45:41.345Z,4.87
2023-05-15T11:47:45.395Z,7.00
2023-05-15T11:49:50.039Z,5.03
2023-05-15T11:51:54.261Z,8.27
2023-05-15T11:53:57.676Z,8.47
2023-05-15T11:56:00.889Z,6.57
2023-05-15T11:58:04.619Z,6.87
2023-05-15T12:00:09.983Z,6.00
2023-05-15T12:02:12.817Z,8.47
2023-05-15T12:04:16.640Z,6.57
2023-05-15T12:06:20.023Z,5.43
2023-05-15T12:08:24.392Z,4.10
2023-05-15T12:10:27.509Z,5.90
2023-05-15T12:12:30.508Z,5.17
2023-05-15T12:14:33.961Z,7.77
2023-05-15T12:16:37.624Z,6.47
2023-05-15T12:18:40.536Z,4.67
2023-05-15T12:20:45.070Z,8.57
2023-05-15T12:22:48.077Z,5.50
2023-05-15T12:24:52.432Z,7.27
2023-05-15T12:26:57.353Z,4.20
2023-05-15T12:29:00.776Z,5.70
2023-05-15T12:31:04.055Z,4.83
2023-05-15T12:33:08.195Z,7.10
2023-05-15T12:35:12.847Z,5.70
2023-05-15T12:37:15.781Z,11.50
2023-05-15T12:39:18.805Z,9.60
2023-05-15T12:41:23.072Z,7.03
2023-05-15T12:43:26.773Z,5.73
2023-05-15T12:45:29.668Z,5.90
2023-05-15T12:47:32.450Z,5.53
2023-05-15T12:49:37.037Z,6.75
2023-05-15T12:51:43.874Z,6.93
2023-05-15T12:53:47.885Z,5.97
2023-05-15T12:55:52.330Z,6.43
2023-05-15T12:57:58.666Z,7.43
2023-05-15T13:00:01.669Z,7.13
2023-05-15T13:02:04.796Z,7.57
2023-05-15T13:04:07.640Z,6.13
2023-05-15T13:06:11.354Z,5.00
2023-05-15T13:08:17.976Z,4.77
2023-05-15T13:10:23.933Z,7.23
2023-05-15T13:12:27.002Z,7.23
2023-05-15T13:14:34.034Z,6.73
2023-05-15T13:16:37.990Z,8.17
2023-05-15T13:18:41.203Z,4.80
2023-05-15T13:20:45.259Z,8.83
2023-05-15T13:22:51.764Z,6.57
2023-05-15T13:24:54.826Z,6.07
2023-05-15T13:27:00.201Z,8.43
2023-05-15T13:29:03.042Z,5.67
2023-05-15T13:31:07.237Z,5.83
2023-05-15T13:33:13.356Z,4.40
2023-05-15T13:35:16.446Z,7.03
2023-05-15T13:37:19.304Z,6.23
2023-05-15T13:39:22.155Z,9.00
2023-05-15T13:41:25.018Z,5.07
2023-05-15T13:43:27.911Z,6.60
2023-05-15T13:45:30.727Z,10.73
2023-05-15T13:47:34.858Z,5.80
2023-05-15T13:49:37.979Z,7.23
2023-05-15T13:51:40.960Z,5.40
2023-05-15T13:53:43.827Z,8.48
2023-05-15T13:55:47.298Z,8.20
2023-05-15T13:57:50.145Z,6.25
2023-05-15T13:59:53.223Z,6.90
2023-05-15T14:01:56.356Z,8.13
2023-05-15T14:04:00.773Z,6.17
2023-05-15T14:06:03.659Z,5.30
2023-05-15T14:08:07.060Z,6.67
2023-05-15T14:10:10.862Z,11.30
2023-05-15T14:12:13.608Z,5.50
2023-05-15T14:14:16.409Z,10.07
2023-05-15T14:16:19.318Z,5.23
2023-05-15T14:18:22.147Z,7.63
2023-05-15T14:20:26.594Z,4.77
2023-05-15T14:22:29.622Z,6.13
2023-05-15T14:24:32.449Z,9.40
2023-05-15T14:26:35.791Z,5.10
2023-05-15T14:28:38.917Z,6.47
2023-05-15T14:30:41.744Z,5.77
2023-05-15T14:32:44.584Z,7.03
2023-05-15T14:34:47.367Z,10.48
2023-05-15T14:36:51.716Z,4.50
2023-05-15T14:38:54.498Z,4.63
2023-05-15T14:40:57.377Z,5.85
2023-05-15T14:43:00.140Z,5.47
2023-05-15T14:45:03.018Z,9.60
2023-05-15T14:47:07.731Z,6.65
2023-05-15T14:49:10.768Z,5.63
2023-05-15T14:51:13.629Z,7.78
2023-05-15T14:53:17.826Z,7.38
2023-05-15T14:55:22.011Z,5.95
2023-05-15T14:57:24.912Z,9.95
2023-05-15T14:59:29.176Z,3.72
2023-05-15T15:01:31.952Z,5.32
2023-05-15T15:03:34.915Z,4.70
2023-05-15T15:05:37.907Z,4.65
2023-05-15T15:08:01.719Z,5.47
2023-05-15T15:10:06.592Z,5.63
2023-05-15T15:12:09.638Z,6.35
2023-05-15T15:14:12.383Z,4.53
2023-05-15T15:16:15.300Z,4.78
2023-05-15T15:18:18.179Z,6.80
2023-05-15T15:20:21.829Z,6.28
2023-05-15T15:22:24.951Z,7.60
2023-05-15T15:24:28.518Z,3.47
2023-05-15T15:26:32.665Z,8.80
2023-05-15T15:28:35.756Z,4.25
2023-05-15T15:30:38.529Z,3.20
2023-05-15T15:32:42.148Z,5.22
2023-05-15T15:34:45.245Z,4.55
2023-05-15T15:36:48.079Z,7.22
2023-05-15T15:38:50.904Z,5.53
2023-05-15T15:40:53.732Z,3.90
2023-05-15T15:42:57.845Z,3.95
2023-05-15T15:45:01.550Z,4.65
2023-05-15T15:47:04.558Z,4.18
2023-05-15T15:49:07.626Z,4.15
2023-05-15T15:51:10.908Z,4.90
2023-05-15T15:53:13.661Z,8.18
2023-05-15T15:55:16.467Z,3.53
2023-05-15T15:57:20.010Z,6.57
2023-05-15T15:59:24.143Z,4.50
2023-05-15T16:01:26.971Z,5.70
2023-05-15T16:03:30.145Z,3.03
2023-05-15T16:05:33.096Z,3.03
2023-05-15T16:07:36.320Z,3.58
2023-05-15T16:09:39.183Z,4.80
2023-05-15T16:11:41.970Z,5.55
2023-05-15T16:13:45.281Z,2.78
2023-05-15T16:15:49.492Z,3.37
2023-05-15T16:17:54.126Z,3.37
2023-05-15T16:19:57.356Z,3.87
2023-05-15T16:22:00.451Z,2.53
2023-05-15T16:24:03.546Z,4.43
2023-05-15T16:26:06.779Z,2.73
2023-05-15T16:28:10.211Z,2.77
2023-05-15T16:30:14.472Z,4.07
2023-05-15T16:32:18.736Z,3.50
2023-05-15T16:34:21.855Z,3.90
2023-05-15T16:36:24.644Z,4.80
2023-05-15T16:38:27.562Z,2.60
2023-05-15T16:40:30.355Z,2.90
2023-05-15T16:42:36.769Z,2.57
2023-05-15T16:44:39.599Z,3.77
2023-05-15T16:46:42.462Z,3.10
2023-05-15T16:48:46.662Z,6.80
2023-05-15T16:50:49.573Z,3.90
2023-05-15T16:52:52.395Z,4.80
2023-05-15T16:54:55.404Z,4.33
2023-05-15T16:56:58.210Z,5.17
2023-05-15T16:59:01.133Z,4.57
2023-05-15T17:01:03.918Z,3.87
2023-05-15T17:03:07.498Z,4.03
2023-05-15T17:05:12.334Z,5.60
2023-05-15T17:07:15.118Z,4.90
2023-05-15T17:09:18.046Z,3.80
2023-05-15T17:11:21.541Z,4.13
2023-05-15T17:13:26.489Z,6.17
2023-05-15T17:15:30.700Z,4.57
2023-05-15T17:17:33.582Z,4.77
2023-05-15T17:19:36.402Z,3.87
2023-05-15T17:21:40.603Z,7.17
2023-05-15T17:23:43.825Z,3.87
2023-05-15T17:25:46.883Z,7.60
2023-05-15T17:27:49.706Z,4.10
2023-05-15T17:29:52.580Z,4.70
2023-05-15T17:31:55.753Z,5.87
2023-05-15T17:33:58.615Z,6.37
2023-05-15T17:36:01.547Z,4.53
2023-05-15T17:38:05.776Z,4.30
2023-05-15T17:40:09.490Z,3.40
2023-05-15T17:42:12.678Z,3.93
2023-05-15T17:44:15.614Z,5.50
2023-05-15T17:46:18.423Z,4.27
2023-05-15T17:48:21.130Z,5.87
2023-05-15T17:50:23.936Z,5.00
2023-05-15T17:52:26.741Z,5.17
2023-05-15T17:54:31.015Z,5.70
2023-05-15T17:56:33.835Z,4.43
2023-05-15T17:58:36.686Z,5.73
2023-05-15T18:00:40.008Z,4.33
2023-05-15T18:02:42.778Z,3.90
2023-05-15T18:04:45.764Z,2.90
2023-05-15T18:06:48.842Z,2.60
2023-05-15T18:08:52.175Z,4.37
2023-05-15T18:10:56.299Z,3.47
2023-05-15T18:12:59.530Z,2.93
2023-05-15T18:15:02.535Z,3.10
2023-05-15T18:17:05.450Z,4.00
2023-05-15T18:19:08.441Z,3.80
2023-05-15T18:21:11.248Z,2.87
2023-05-15T18:23:14.289Z,2.87
2023-05-15T18:25:17.265Z,6.63
2023-05-15T18:27:21.459Z,3.17
2023-05-15T18:29:24.866Z,3.20
2023-05-15T18:31:27.657Z,3.30
2023-05-15T18:33:30.681Z,3.70
2023-05-15T18:35:33.567Z,2.73
2023-05-15T18:37:36.378Z,3.00
2023-05-15T18:39:39.580Z,3.60
2023-05-15T18:41:42.595Z,4.03
2023-05-15T18:43:46.865Z,3.97
2023-05-15T18:45:49.649Z,3.43
2023-05-15T18:47:52.655Z,3.07
2023-05-15T18:49:56.578Z,3.50
2023-05-15T18:51:59.539Z,4.47
2023-05-15T18:54:02.351Z,2.87
2023-05-15T18:56:05.607Z,2.90
2023-05-15T18:58:08.748Z,4.07
2023-05-15T19:00:18.855Z,4.63
2023-05-15T19:02:26.611Z,3.93
2023-05-15T19:04:29.462Z,4.17
2023-05-15T19:06:32.786Z,4.07
2023-05-15T19:08:35.581Z,3.13
2023-05-15T19:10:38.516Z,2.90
2023-05-15T19:12:41.400Z,3.10
2023-05-15T19:14:44.248Z,5.33
2023-05-15T19:16:48.447Z,5.83
2023-05-15T19:18:51.336Z,6.10
2023-05-15T19:20:54.284Z,4.10
2023-05-15T19:22:57.122Z,4.90
2023-05-15T19:25:00.020Z,3.77
2023-05-15T19:27:02.998Z,4.87
2023-05-15T19:29:06.174Z,3.20
2023-05-15T19:31:20.457Z,3.60
2023-05-15T19:33:32.059Z,3.23
2023-05-15T19:35:37.343Z,6.10
2023-05-15T19:37:40.666Z,3.77
2023-05-15T19:39:43.505Z,3.23
2023-05-15T19:41:46.363Z,3.30
2023-05-15T19:43:50.817Z,4.87
2023-05-15T19:45:53.679Z,5.17
2023-05-15T19:47:56.645Z,3.20
2023-05-15T19:50:00.881Z,3.83
2023-05-15T19:52:03.833Z,4.87
2023-05-15T19:54:06.650Z,6.67
2023-05-15T19:56:09.598Z,5.03
2023-05-15T19:58:12.813Z,6.30
2023-05-15T20:00:16.232Z,6.10
2023-05-15T20:02:19.302Z,5.67
2023-05-15T20:04:22.083Z,4.17
2023-05-15T20:06:26.302Z,4.00
2023-05-15T20:08:29.450Z,5.30
2023-05-15T20:10:32.222Z,4.50
2023-05-15T20:12:35.130Z,4.90
2023-05-15T20:14:37.943Z,5.27
2023-05-15T20:16:41.044Z,6.10
2023-05-15T20:18:44.750Z,5.43
2023-05-15T20:20:47.641Z,6.43
2023-05-15T20:22:51.748Z,4.30
2023-05-15T20:24:54.558Z,4.40
2023-05-15T20:26:57.352Z,5.73
2023-05-15T20:29:00.573Z,5.83
2023-05-15T20:31:03.421Z,5.83
2023-05-15T20:33:07.079Z,6.20
2023-05-15T20:35:13.111Z,5.03
2023-05-15T20:37:16.309Z,5.80
2023-05-15T20:39:22.112Z,5.00
2023-05-15T20:41:24.876Z,7.10
2023-05-15T20:43:27.798Z,6.57
2023-05-15T20:45:32.125Z,5.10
2023-05-15T20:47:35.039Z,6.43
2023-05-15T20:49:37.915Z,6.53
2023-05-15T20:51:44.500Z,8.37
2023-05-15T20:53:47.354Z,6.40
2023-05-15T20:55:51.829Z,7.63
2023-05-15T20:57:54.584Z,6.23
2023-05-15T20:59:57.384Z,8.00
2023-05-15T21:02:00.349Z,9.40
2023-05-15T21:04:03.292Z,7.27
2023-05-15T21:06:06.328Z,7.77
2023-05-15T21:08:09.198Z,9.23
2023-05-15T21:10:12.748Z,7.20
2023-05-15T21:12:16.856Z,6.83
2023-05-15T21:14:19.890Z,7.70
2023-05-15T21:16:22.767Z,10.50
2023-05-15T21:18:25.615Z,7.30
2023-05-15T21:20:28.646Z,6.50
2023-05-15T21:22:31.544Z,7.27
2023-05-15T21:24:34.347Z,9.47
2023-05-15T21:26:37.106Z,7.30
2023-05-15T21:28:41.319Z,7.83
2023-05-15T21:30:44.421Z,8.87
2023-05-15T21:32:47.404Z,7.40
2023-05-15T21:34:50.656Z,8.00
2023-05-15T21:36:53.805Z,8.53
2023-05-15T21:38:56.755Z,8.20
2023-05-15T21:41:00.959Z,8.60
2023-05-15T21:43:03.837Z,8.70
2023-05-15T21:45:08.936Z,8.20
2023-05-15T21:47:11.738Z,7.33
2023-05-15T21:49:14.493Z,7.40
2023-05-15T21:51:17.285Z,7.13
2023-05-15T21:53:20.272Z,8.90
2023-05-15T21:55:22.994Z,7.37
2023-05-15T21:57:26.078Z,10.00
2023-05-15T21:59:28.897Z,16.60
2023-05-15T22:01:33.042Z,8.77
2023-05-15T22:03:36.001Z,9.47
2023-05-15T22:05:38.831Z,10.87
2023-05-15T22:07:41.673Z,11.07
2023-05-15T22:09:44.852Z,11.27
2023-05-15T22:11:47.617Z,12.03
2023-05-15T22:13:50.448Z,12.43
2023-05-15T22:15:53.247Z,11.00
2023-05-15T22:17:58.869Z,10.63
2023-05-15T22:20:07.889Z,9.73
2023-05-15T22:22:11.676Z,11.67
2023-05-15T22:24:14.542Z,11.77
2023-05-15T22:26:19.818Z,13.00
2023-05-15T22:28:23.347Z,10.63
2023-05-15T22:30:26.350Z,12.17
2023-05-15T22:32:29.577Z,10.93
2023-05-15T22:34:34.011Z,10.50
2023-05-15T22:36:36.855Z,10.53
2023-05-15T22:38:39.658Z,11.17
2023-05-15T22:40:42.750Z,14.47
2023-05-15T22:42:49.986Z,12.97
2023-05-15T22:44:54.047Z,9.80
2023-05-15T22:46:56.835Z,11.13
2023-05-15T22:49:00.250Z,17.37
2023-05-15T22:51:05.024Z,12.90
2023-05-15T22:53:08.065Z,13.77
2023-05-15T22:55:12.891Z,14.80
2023-05-15T22:57:15.828Z,11.47
2023-05-15T22:59:19.389Z,15.13
2023-05-15T23:01:22.260Z,12.70
2023-05-15T23:03:25.286Z,15.73
2023-05-15T23:05:28.601Z,14.33
2023-05-15T23:07:32.724Z,15.77
2023-05-15T23:09:36.245Z,15.73
2023-05-15T23:11:38.997Z,13.03
2023-05-15T23:13:41.817Z,15.37
2023-05-15T23:15:46.485Z,18.83
2023-05-15T23:17:49.340Z,14.93
2023-05-15T23:19:52.640Z,18.23
2023-05-15T23:21:55.788Z,14.67
2023-05-15T23:24:00.705Z,16.40
2023-05-15T23:26:03.586Z,14.20
2023-05-15T23:28:06.394Z,17.33
2023-05-15T23:30:10.601Z,13.90
2023-05-15T23:32:13.508Z,18.13
2023-05-15T23:34:16.401Z,18.67
2023-05-15T23:36:19.223Z,15.10
2023-05-15T23:38:23.473Z,16.17
2023-05-15T23:40:27.883Z,13.93
2023-05-15T23:42:31.305Z,15.57
2023-05-15T23:44:34.065Z,15.37
2023-05-15T23:46:38.557Z,20.80
2023-05-15T23:48:41.420Z,16.43
2023-05-15T23:50:44.834Z,16.53
2023-05-15T23:52:47.618Z,20.17
2023-05-15T23:54:50.541Z,18.63
2023-05-15T23:56:54.730Z,20.07
2023-05-15T23:58:57.503Z,18.83
